sensor_id;sensor_type;location;lat;lon;timestamp;P1;durP1;ratioP1;P2;durP2;ratioP2
48963;SDS011;34776;48.180;16.420;2023-06-26T00:01:01;8.80;;;6.70;;
48963;SDS011;34776;48.180;16.420;2023-06-26T00:03:27;7.82;;;7.05;;
48963;SDS011;34776;48.180;16.420;2023-06-26T00:05:53;8.52;;;6.65;;
48963;SDS011;34776;48.180;16.420;2023-06-26T00:08:19;9.98;;;6.68;;
48963;SDS011;34776;48.180;16.420;2023-06-26T00:10:44;7.68;;;6.78;;
48963;SDS011;34776;48.180;16.420;2023-06-26T00:13:11;7.15;;;6.45;;
48963;SDS011;34776;48.180;16.420;2023-06-26T00:15:37;7.43;;;6.60;;
48963;SDS011;34776;48.180;16.420;2023-06-26T00:18:02;8.55;;;6.60;;
48963;SDS011;34776;48.180;16.420;2023-06-26T00:20:28;8.43;;;6.55;;
48963;SDS011;34776;48.180;16.420;2023-06-26T00:22:54;8.90;;;6.70;;
48963;SDS011;34776;48.180;16.420;2023-06-26T00:25:20;7.32;;;6.60;;
48963;SDS011;34776;48.180;16.420;2023-06-26T00:27:46;6.95;;;6.20;;
48963;SDS011;34776;48.180;16.420;2023-06-26T00:30:11;7.50;;;6.65;;
48963;SDS011;34776;48.180;16.420;2023-06-26T00:32:37;7.07;;;6.20;;
48963;SDS011;34776;48.180;16.420;2023-06-26T00:35:02;8.55;;;6.15;;
48963;SDS011;34776;48.180;16.420;2023-06-26T00:37:27;16.35;;;6.55;;
48963;SDS011;34776;48.180;16.420;2023-06-26T00:39:53;7.05;;;6.15;;
48963;SDS011;34776;48.180;16.420;2023-06-26T00:42:18;7.18;;;6.47;;
48963;SDS011;34776;48.180;16.420;2023-06-26T00:44:43;8.35;;;5.95;;
48963;SDS011;34776;48.180;16.420;2023-06-26T00:47:09;6.82;;;6.22;;
48963;SDS011;34776;48.180;16.420;2023-06-26T00:49:39;7.20;;;6.13;;
48963;SDS011;34776;48.180;16.420;2023-06-26T00:52:04;7.30;;;6.07;;
48963;SDS011;34776;48.180;16.420;2023-06-26T00:54:31;6.38;;;5.78;;
48963;SDS011;34776;48.180;16.420;2023-06-26T00:56:56;6.60;;;5.75;;
48963;SDS011;34776;48.180;16.420;2023-06-26T00:59:22;6.82;;;6.13;;
48963;SDS011;34776;48.180;16.420;2023-06-26T01:01:47;7.57;;;5.97;;
48963;SDS011;34776;48.180;16.420;2023-06-26T01:04:13;7.93;;;6.82;;
48963;SDS011;34776;48.180;16.420;2023-06-26T01:06:43;6.63;;;5.97;;
48963;SDS011;34776;48.180;16.420;2023-06-26T01:09:14;6.07;;;5.45;;
48963;SDS011;34776;48.180;16.420;2023-06-26T01:11:41;6.95;;;6.22;;
48963;SDS011;34776;48.180;16.420;2023-06-26T01:14:06;6.72;;;6.03;;
48963;SDS011;34776;48.180;16.420;2023-06-26T01:16:32;6.50;;;5.90;;
48963;SDS011;34776;48.180;16.420;2023-06-26T01:18:58;8.48;;;5.88;;
48963;SDS011;34776;48.180;16.420;2023-06-26T01:21:24;6.15;;;5.55;;
48963;SDS011;34776;48.180;16.420;2023-06-26T01:24:13;6.50;;;5.88;;
48963;SDS011;34776;48.180;16.420;2023-06-26T01:26:45;6.10;;;5.47;;
48963;SDS011;34776;48.180;16.420;2023-06-26T01:29:13;6.50;;;5.60;;
48963;SDS011;34776;48.180;16.420;2023-06-26T01:31:41;9.27;;;5.80;;
48963;SDS011;34776;48.180;16.420;2023-06-26T01:34:08;6.05;;;5.45;;
48963;SDS011;34776;48.180;16.420;2023-06-26T01:36:34;6.80;;;5.50;;
48963;SDS011;34776;48.180;16.420;2023-06-26T01:39:00;7.75;;;5.78;;
48963;SDS011;34776;48.180;16.420;2023-06-26T01:41:25;6.60;;;5.80;;
48963;SDS011;34776;48.180;16.420;2023-06-26T01:46:36;6.68;;;5.45;;
48963;SDS011;34776;48.180;16.420;2023-06-26T01:51:41;6.97;;;5.53;;
48963;SDS011;34776;48.180;16.420;2023-06-26T01:54:13;8.70;;;5.45;;
48963;SDS011;34776;48.180;16.420;2023-06-26T01:56:41;6.68;;;5.57;;
48963;SDS011;34776;48.180;16.420;2023-06-26T01:59:09;6.03;;;5.47;;
48963;SDS011;34776;48.180;16.420;2023-06-26T02:01:39;6.25;;;5.70;;
48963;SDS011;34776;48.180;16.420;2023-06-26T02:04:04;6.47;;;5.85;;
48963;SDS011;34776;48.180;16.420;2023-06-26T02:06:29;6.90;;;5.47;;
48963;SDS011;34776;48.180;16.420;2023-06-26T02:08:55;6.25;;;5.57;;
48963;SDS011;34776;48.180;16.420;2023-06-26T02:11:21;7.10;;;6.07;;
48963;SDS011;34776;48.180;16.420;2023-06-26T02:13:47;7.72;;;6.30;;
48963;SDS011;34776;48.180;16.420;2023-06-26T02:16:12;6.88;;;6.18;;
48963;SDS011;34776;48.180;16.420;2023-06-26T02:18:38;6.28;;;5.70;;
48963;SDS011;34776;48.180;16.420;2023-06-26T02:21:03;6.88;;;5.65;;
48963;SDS011;34776;48.180;16.420;2023-06-26T02:23:29;6.65;;;6.03;;
48963;SDS011;34776;48.180;16.420;2023-06-26T02:25:54;6.38;;;5.78;;
48963;SDS011;34776;48.180;16.420;2023-06-26T02:28:20;7.28;;;6.10;;
48963;SDS011;34776;48.180;16.420;2023-06-26T02:30:45;5.68;;;5.18;;
48963;SDS011;34776;48.180;16.420;2023-06-26T02:33:10;7.80;;;5.88;;
48963;SDS011;34776;48.180;16.420;2023-06-26T02:35:36;6.60;;;5.57;;
48963;SDS011;34776;48.180;16.420;2023-06-26T02:38:02;8.07;;;5.78;;
48963;SDS011;34776;48.180;16.420;2023-06-26T02:40:27;7.43;;;5.82;;
48963;SDS011;34776;48.180;16.420;2023-06-26T02:42:52;7.55;;;5.88;;
48963;SDS011;34776;48.180;16.420;2023-06-26T02:45:18;5.97;;;5.47;;
48963;SDS011;34776;48.180;16.420;2023-06-26T02:47:43;6.72;;;5.78;;
48963;SDS011;34776;48.180;16.420;2023-06-26T02:50:08;6.07;;;5.47;;
48963;SDS011;34776;48.180;16.420;2023-06-26T02:52:34;5.57;;;5.07;;
48963;SDS011;34776;48.180;16.420;2023-06-26T02:54:59;6.82;;;5.40;;
48963;SDS011;34776;48.180;16.420;2023-06-26T02:57:25;8.18;;;6.05;;
48963;SDS011;34776;48.180;16.420;2023-06-26T02:59:50;7.38;;;6.47;;
48963;SDS011;34776;48.180;16.420;2023-06-26T03:02:16;8.05;;;6.20;;
48963;SDS011;34776;48.180;16.420;2023-06-26T03:04:41;6.13;;;5.53;;
48963;SDS011;34776;48.180;16.420;2023-06-26T03:07:08;7.18;;;6.03;;
48963;SDS011;34776;48.180;16.420;2023-06-26T03:09:33;9.05;;;5.93;;
48963;SDS011;34776;48.180;16.420;2023-06-26T03:11:59;6.80;;;5.75;;
48963;SDS011;34776;48.180;16.420;2023-06-26T03:14:24;7.00;;;5.72;;
48963;SDS011;34776;48.180;16.420;2023-06-26T03:16:50;7.18;;;5.18;;
48963;SDS011;34776;48.180;16.420;2023-06-26T03:19:17;6.13;;;5.47;;
48963;SDS011;34776;48.180;16.420;2023-06-26T03:21:43;8.13;;;6.15;;
48963;SDS011;34776;48.180;16.420;2023-06-26T03:24:08;6.80;;;5.95;;
48963;SDS011;34776;48.180;16.420;2023-06-26T03:26:34;6.47;;;5.80;;
48963;SDS011;34776;48.180;16.420;2023-06-26T03:28:59;6.10;;;5.50;;
48963;SDS011;34776;48.180;16.420;2023-06-26T03:31:24;5.78;;;5.28;;
48963;SDS011;34776;48.180;16.420;2023-06-26T03:33:49;8.45;;;6.05;;
48963;SDS011;34776;48.180;16.420;2023-06-26T03:36:15;6.90;;;5.85;;
48963;SDS011;34776;48.180;16.420;2023-06-26T03:38:40;10.25;;;5.93;;
48963;SDS011;34776;48.180;16.420;2023-06-26T03:41:06;6.57;;;5.80;;
48963;SDS011;34776;48.180;16.420;2023-06-26T03:43:31;7.82;;;6.18;;
48963;SDS011;34776;48.180;16.420;2023-06-26T03:45:56;6.10;;;5.50;;
48963;SDS011;34776;48.180;16.420;2023-06-26T03:48:22;6.88;;;6.18;;
48963;SDS011;34776;48.180;16.420;2023-06-26T03:50:47;7.28;;;5.97;;
48963;SDS011;34776;48.180;16.420;2023-06-26T03:53:12;7.38;;;5.90;;
48963;SDS011;34776;48.180;16.420;2023-06-26T03:55:38;6.90;;;5.38;;
48963;SDS011;34776;48.180;16.420;2023-06-26T03:58:03;7.50;;;6.38;;
48963;SDS011;34776;48.180;16.420;2023-06-26T04:00:29;8.98;;;6.28;;
48963;SDS011;34776;48.180;16.420;2023-06-26T04:02:55;7.13;;;5.90;;
48963;SDS011;34776;48.180;16.420;2023-06-26T04:05:20;8.90;;;6.25;;
48963;SDS011;34776;48.180;16.420;2023-06-26T04:07:45;7.50;;;5.75;;
48963;SDS011;34776;48.180;16.420;2023-06-26T04:10:14;7.07;;;5.30;;
48963;SDS011;34776;48.180;16.420;2023-06-26T04:12:39;7.43;;;6.00;;
48963;SDS011;34776;48.180;16.420;2023-06-26T04:15:04;7.13;;;6.00;;
48963;SDS011;34776;48.180;16.420;2023-06-26T04:17:30;8.63;;;5.88;;
48963;SDS011;34776;48.180;16.420;2023-06-26T04:19:56;6.07;;;5.50;;
48963;SDS011;34776;48.180;16.420;2023-06-26T04:22:21;6.47;;;5.88;;
48963;SDS011;34776;48.180;16.420;2023-06-26T04:24:46;6.07;;;5.35;;
48963;SDS011;34776;48.180;16.420;2023-06-26T04:27:12;6.63;;;5.88;;
48963;SDS011;34776;48.180;16.420;2023-06-26T04:29:38;7.05;;;5.90;;
48963;SDS011;34776;48.180;16.420;2023-06-26T04:32:04;8.73;;;6.25;;
48963;SDS011;34776;48.180;16.420;2023-06-26T04:34:30;11.38;;;9.73;;
48963;SDS011;34776;48.180;16.420;2023-06-26T04:36:58;9.48;;;7.53;;
48963;SDS011;34776;48.180;16.420;2023-06-26T04:39:24;9.20;;;7.65;;
48963;SDS011;34776;48.180;16.420;2023-06-26T04:41:49;7.90;;;6.82;;
48963;SDS011;34776;48.180;16.420;2023-06-26T04:44:15;10.77;;;6.70;;
48963;SDS011;34776;48.180;16.420;2023-06-26T04:46:40;7.43;;;6.47;;
48963;SDS011;34776;48.180;16.420;2023-06-26T04:49:06;9.10;;;6.47;;
48963;SDS011;34776;48.180;16.420;2023-06-26T04:51:34;9.63;;;7.28;;
48963;SDS011;34776;48.180;16.420;2023-06-26T04:54:05;10.40;;;6.63;;
48963;SDS011;34776;48.180;16.420;2023-06-26T04:56:31;9.30;;;7.55;;
48963;SDS011;34776;48.180;16.420;2023-06-26T04:58:57;10.55;;;6.50;;
48963;SDS011;34776;48.180;16.420;2023-06-26T05:01:22;7.35;;;6.25;;
48963;SDS011;34776;48.180;16.420;2023-06-26T05:03:48;7.88;;;6.13;;
48963;SDS011;34776;48.180;16.420;2023-06-26T05:06:14;7.05;;;5.53;;
48963;SDS011;34776;48.180;16.420;2023-06-26T05:08:39;8.27;;;5.97;;
48963;SDS011;34776;48.180;16.420;2023-06-26T05:11:04;7.00;;;5.45;;
48963;SDS011;34776;48.180;16.420;2023-06-26T05:13:30;11.35;;;6.47;;
48963;SDS011;34776;48.180;16.420;2023-06-26T05:15:55;9.73;;;6.15;;
48963;SDS011;34776;48.180;16.420;2023-06-26T05:18:20;12.75;;;8.63;;
48963;SDS011;34776;48.180;16.420;2023-06-26T05:20:46;7.55;;;6.47;;
48963;SDS011;34776;48.180;16.420;2023-06-26T05:23:12;10.18;;;5.80;;
48963;SDS011;34776;48.180;16.420;2023-06-26T05:25:37;7.50;;;5.85;;
48963;SDS011;34776;48.180;16.420;2023-06-26T05:28:03;10.98;;;5.70;;
48963;SDS011;34776;48.180;16.420;2023-06-26T05:30:35;8.88;;;6.05;;
48963;SDS011;34776;48.180;16.420;2023-06-26T05:33:01;9.55;;;6.15;;
48963;SDS011;34776;48.180;16.420;2023-06-26T05:35:28;7.45;;;6.20;;
48963;SDS011;34776;48.180;16.420;2023-06-26T05:37:55;7.63;;;5.70;;
48963;SDS011;34776;48.180;16.420;2023-06-26T05:40:21;7.13;;;5.40;;
48963;SDS011;34776;48.180;16.420;2023-06-26T05:42:46;11.80;;;6.63;;
48963;SDS011;34776;48.180;16.420;2023-06-26T05:45:12;10.25;;;6.10;;
48963;SDS011;34776;48.180;16.420;2023-06-26T05:47:38;6.75;;;5.95;;
48963;SDS011;34776;48.180;16.420;2023-06-26T05:50:03;6.10;;;5.50;;
48963;SDS011;34776;48.180;16.420;2023-06-26T05:52:29;6.47;;;4.63;;
48963;SDS011;34776;48.180;16.420;2023-06-26T05:54:55;5.13;;;4.63;;
48963;SDS011;34776;48.180;16.420;2023-06-26T05:57:25;5.00;;;4.22;;
48963;SDS011;34776;48.180;16.420;2023-06-26T05:59:53;4.57;;;4.13;;
48963;SDS011;34776;48.180;16.420;2023-06-26T06:02:18;5.35;;;4.15;;
48963;SDS011;34776;48.180;16.420;2023-06-26T06:04:44;4.40;;;4.00;;
48963;SDS011;34776;48.180;16.420;2023-06-26T06:07:09;4.63;;;3.72;;
48963;SDS011;34776;48.180;16.420;2023-06-26T06:09:35;7.05;;;4.80;;
48963;SDS011;34776;48.180;16.420;2023-06-26T06:12:00;4.45;;;3.72;;
48963;SDS011;34776;48.180;16.420;2023-06-26T06:14:26;8.38;;;4.00;;
48963;SDS011;34776;48.180;16.420;2023-06-26T06:16:53;4.28;;;3.83;;
48963;SDS011;34776;48.180;16.420;2023-06-26T06:19:18;3.90;;;3.50;;
48963;SDS011;34776;48.180;16.420;2023-06-26T06:21:43;4.00;;;3.60;;
48963;SDS011;34776;48.180;16.420;2023-06-26T06:24:09;5.00;;;3.35;;
48963;SDS011;34776;48.180;16.420;2023-06-26T06:26:34;4.88;;;3.60;;
48963;SDS011;34776;48.180;16.420;2023-06-26T06:29:00;7.65;;;3.67;;
48963;SDS011;34776;48.180;16.420;2023-06-26T06:31:26;6.10;;;3.90;;
48963;SDS011;34776;48.180;16.420;2023-06-26T06:33:53;3.58;;;3.25;;
48963;SDS011;34776;48.180;16.420;2023-06-26T06:36:19;3.75;;;3.30;;
48963;SDS011;34776;48.180;16.420;2023-06-26T06:38:44;4.78;;;3.80;;
48963;SDS011;34776;48.180;16.420;2023-06-26T06:41:09;3.97;;;3.30;;
48963;SDS011;34776;48.180;16.420;2023-06-26T06:43:35;4.45;;;3.65;;
48963;SDS011;34776;48.180;16.420;2023-06-26T06:46:01;5.80;;;3.65;;
48963;SDS011;34776;48.180;16.420;2023-06-26T06:48:26;6.13;;;3.60;;
48963;SDS011;34776;48.180;16.420;2023-06-26T06:50:52;3.95;;;3.55;;
48963;SDS011;34776;48.180;16.420;2023-06-26T06:53:17;4.32;;;3.40;;
48963;SDS011;34776;48.180;16.420;2023-06-26T06:55:45;5.65;;;3.50;;
48963;SDS011;34776;48.180;16.420;2023-06-26T06:58:11;4.28;;;3.30;;
48963;SDS011;34776;48.180;16.420;2023-06-26T07:00:36;3.75;;;3.00;;
48963;SDS011;34776;48.180;16.420;2023-06-26T07:03:01;4.30;;;3.65;;
48963;SDS011;34776;48.180;16.420;2023-06-26T07:05:27;5.88;;;3.20;;
48963;SDS011;34776;48.180;16.420;2023-06-26T07:07:52;6.65;;;3.72;;
48963;SDS011;34776;48.180;16.420;2023-06-26T07:10:18;4.07;;;3.30;;
48963;SDS011;34776;48.180;16.420;2023-06-26T07:12:43;6.85;;;3.05;;
48963;SDS011;34776;48.180;16.420;2023-06-26T07:15:09;4.40;;;3.50;;
48963;SDS011;34776;48.180;16.420;2023-06-26T07:17:35;3.65;;;2.78;;
48963;SDS011;34776;48.180;16.420;2023-06-26T07:20:00;4.28;;;3.38;;
48963;SDS011;34776;48.180;16.420;2023-06-26T07:22:30;3.63;;;2.85;;
48963;SDS011;34776;48.180;16.420;2023-06-26T07:24:55;5.30;;;2.90;;
48963;SDS011;34776;48.180;16.420;2023-06-26T07:27:21;3.35;;;2.88;;
48963;SDS011;34776;48.180;16.420;2023-06-26T07:29:47;4.07;;;3.10;;
48963;SDS011;34776;48.180;16.420;2023-06-26T07:32:12;4.90;;;4.50;;
48963;SDS011;34776;48.180;16.420;2023-06-26T07:34:38;4.50;;;3.75;;
48963;SDS011;34776;48.180;16.420;2023-06-26T07:37:03;5.23;;;3.87;;
48963;SDS011;34776;48.180;16.420;2023-06-26T07:39:29;4.45;;;3.03;;
48963;SDS011;34776;48.180;16.420;2023-06-26T07:41:54;3.65;;;2.65;;
48963;SDS011;34776;48.180;16.420;2023-06-26T07:44:20;4.95;;;3.10;;
48963;SDS011;34776;48.180;16.420;2023-06-26T07:46:46;3.30;;;2.70;;
48963;SDS011;34776;48.180;16.420;2023-06-26T07:49:12;2.78;;;2.55;;
48963;SDS011;34776;48.180;16.420;2023-06-26T07:51:37;9.30;;;2.78;;
48963;SDS011;34776;48.180;16.420;2023-06-26T07:54:03;10.82;;;2.70;;
48963;SDS011;34776;48.180;16.420;2023-06-26T07:56:28;16.30;;;3.30;;
48963;SDS011;34776;48.180;16.420;2023-06-26T07:58:54;2.88;;;2.60;;
48963;SDS011;34776;48.180;16.420;2023-06-26T08:01:19;6.60;;;2.78;;
48963;SDS011;34776;48.180;16.420;2023-06-26T08:03:45;4.97;;;2.90;;
48963;SDS011;34776;48.180;16.420;2023-06-26T08:06:10;8.18;;;2.80;;
48963;SDS011;34776;48.180;16.420;2023-06-26T08:08:35;2.90;;;2.70;;
48963;SDS011;34776;48.180;16.420;2023-06-26T08:11:01;3.10;;;2.40;;
48963;SDS011;34776;48.180;16.420;2023-06-26T08:13:26;3.50;;;2.83;;
48963;SDS011;34776;48.180;16.420;2023-06-26T08:15:51;3.15;;;2.80;;
48963;SDS011;34776;48.180;16.420;2023-06-26T08:18:17;3.80;;;3.03;;
48963;SDS011;34776;48.180;16.420;2023-06-26T08:20:43;5.60;;;3.40;;
48963;SDS011;34776;48.180;16.420;2023-06-26T08:23:08;7.22;;;3.60;;
48963;SDS011;34776;48.180;16.420;2023-06-26T08:25:34;5.55;;;3.00;;
48963;SDS011;34776;48.180;16.420;2023-06-26T08:27:59;3.85;;;2.97;;
48963;SDS011;34776;48.180;16.420;2023-06-26T08:30:24;5.50;;;3.20;;
48963;SDS011;34776;48.180;16.420;2023-06-26T08:32:53;4.28;;;2.90;;
48963;SDS011;34776;48.180;16.420;2023-06-26T08:35:19;3.65;;;3.15;;
48963;SDS011;34776;48.180;16.420;2023-06-26T08:37:45;3.47;;;2.70;;
48963;SDS011;34776;48.180;16.420;2023-06-26T08:40:10;9.50;;;3.27;;
48963;SDS011;34776;48.180;16.420;2023-06-26T08:42:37;12.45;;;3.30;;
48963;SDS011;34776;48.180;16.420;2023-06-26T08:45:02;5.55;;;2.83;;
48963;SDS011;34776;48.180;16.420;2023-06-26T08:47:28;7.00;;;2.92;;
48963;SDS011;34776;48.180;16.420;2023-06-26T08:52:36;3.58;;;2.60;;
48963;SDS011;34776;48.180;16.420;2023-06-26T08:55:06;5.10;;;2.95;;
48963;SDS011;34776;48.180;16.420;2023-06-26T08:57:34;4.30;;;3.10;;
48963;SDS011;34776;48.180;16.420;2023-06-26T09:00:02;3.05;;;2.75;;
48963;SDS011;34776;48.180;16.420;2023-06-26T09:02:28;5.18;;;3.25;;
48963;SDS011;34776;48.180;16.420;2023-06-26T09:04:53;4.57;;;3.10;;
48963;SDS011;34776;48.180;16.420;2023-06-26T09:07:19;4.47;;;2.97;;
48963;SDS011;34776;48.180;16.420;2023-06-26T09:09:44;4.03;;;3.37;;
48963;SDS011;34776;48.180;16.420;2023-06-26T09:12:09;5.35;;;2.70;;
48963;SDS011;34776;48.180;16.420;2023-06-26T09:14:36;2.97;;;2.67;;
48963;SDS011;34776;48.180;16.420;2023-06-26T09:17:02;3.50;;;3.03;;
48963;SDS011;34776;48.180;16.420;2023-06-26T09:19:27;3.92;;;2.90;;
48963;SDS011;34776;48.180;16.420;2023-06-26T09:21:53;6.63;;;3.30;;
48963;SDS011;34776;48.180;16.420;2023-06-26T09:24:19;3.95;;;3.13;;
48963;SDS011;34776;48.180;16.420;2023-06-26T09:26:45;4.88;;;3.60;;
48963;SDS011;34776;48.180;16.420;2023-06-26T09:29:11;4.28;;;3.40;;
48963;SDS011;34776;48.180;16.420;2023-06-26T09:31:39;4.78;;;3.13;;
48963;SDS011;34776;48.180;16.420;2023-06-26T09:34:05;3.85;;;3.17;;
48963;SDS011;34776;48.180;16.420;2023-06-26T09:36:31;8.93;;;3.42;;
48963;SDS011;34776;48.180;16.420;2023-06-26T09:38:59;9.27;;;3.33;;
48963;SDS011;34776;48.180;16.420;2023-06-26T09:41:25;4.50;;;3.40;;
48963;SDS011;34776;48.180;16.420;2023-06-26T09:43:52;6.25;;;3.80;;
48963;SDS011;34776;48.180;16.420;2023-06-26T09:46:27;3.88;;;3.35;;
48963;SDS011;34776;48.180;16.420;2023-06-26T09:51:25;5.85;;;3.78;;
48963;SDS011;34776;48.180;16.420;2023-06-26T09:53:51;4.57;;;4.05;;
48963;SDS011;34776;48.180;16.420;2023-06-26T09:56:16;5.10;;;3.67;;
48963;SDS011;34776;48.180;16.420;2023-06-26T09:58:43;6.90;;;5.28;;
48963;SDS011;34776;48.180;16.420;2023-06-26T10:01:09;5.53;;;4.97;;
48963;SDS011;34776;48.180;16.420;2023-06-26T10:03:34;4.20;;;3.90;;
48963;SDS011;34776;48.180;16.420;2023-06-26T10:06:00;5.07;;;4.18;;
48963;SDS011;34776;48.180;16.420;2023-06-26T10:08:27;6.40;;;3.42;;
48963;SDS011;34776;48.180;16.420;2023-06-26T10:10:54;3.80;;;3.50;;
48963;SDS011;34776;48.180;16.420;2023-06-26T10:13:23;3.70;;;3.38;;
48963;SDS011;34776;48.180;16.420;2023-06-26T10:15:53;4.22;;;3.40;;
48963;SDS011;34776;48.180;16.420;2023-06-26T10:18:19;4.40;;;3.20;;
48963;SDS011;34776;48.180;16.420;2023-06-26T10:20:49;5.18;;;3.60;;
48963;SDS011;34776;48.180;16.420;2023-06-26T10:23:19;3.97;;;3.40;;
48963;SDS011;34776;48.180;16.420;2023-06-26T10:25:45;5.90;;;3.70;;
48963;SDS011;34776;48.180;16.420;2023-06-26T10:28:13;5.35;;;3.42;;
48963;SDS011;34776;48.180;16.420;2023-06-26T10:30:40;5.45;;;4.50;;
48963;SDS011;34776;48.180;16.420;2023-06-26T10:33:08;6.32;;;3.55;;
48963;SDS011;34776;48.180;16.420;2023-06-26T10:35:40;3.95;;;3.45;;
48963;SDS011;34776;48.180;16.420;2023-06-26T10:38:07;4.70;;;3.90;;
48963;SDS011;34776;48.180;16.420;2023-06-26T10:40:43;5.57;;;3.40;;
48963;SDS011;34776;48.180;16.420;2023-06-26T10:43:11;4.75;;;3.40;;
48963;SDS011;34776;48.180;16.420;2023-06-26T10:45:43;10.30;;;3.90;;
48963;SDS011;34776;48.180;16.420;2023-06-26T10:48:17;6.57;;;3.35;;
48963;SDS011;34776;48.180;16.420;2023-06-26T10:50:42;4.78;;;3.42;;
48963;SDS011;34776;48.180;16.420;2023-06-26T10:53:13;5.40;;;3.63;;
48963;SDS011;34776;48.180;16.420;2023-06-26T11:01:41;4.18;;;3.45;;
48963;SDS011;34776;48.180;16.420;2023-06-26T11:04:07;4.38;;;3.03;;
48963;SDS011;34776;48.180;16.420;2023-06-26T11:06:33;3.83;;;3.42;;
48963;SDS011;34776;48.180;16.420;2023-06-26T11:09:01;6.82;;;6.13;;
48963;SDS011;34776;48.180;16.420;2023-06-26T11:14:16;7.43;;;3.97;;
48963;SDS011;34776;48.180;16.420;2023-06-26T11:16:42;4.03;;;3.10;;
48963;SDS011;34776;48.180;16.420;2023-06-26T11:19:08;4.13;;;3.15;;
48963;SDS011;34776;48.180;16.420;2023-06-26T11:21:34;7.15;;;2.90;;
48963;SDS011;34776;48.180;16.420;2023-06-26T11:24:03;7.97;;;3.20;;
48963;SDS011;34776;48.180;16.420;2023-06-26T11:26:30;3.50;;;2.63;;
48963;SDS011;34776;48.180;16.420;2023-06-26T11:29:02;4.85;;;3.30;;
48963;SDS011;34776;48.180;16.420;2023-06-26T11:31:28;4.10;;;3.20;;
48963;SDS011;34776;48.180;16.420;2023-06-26T11:33:59;3.72;;;3.30;;
48963;SDS011;34776;48.180;16.420;2023-06-26T11:36:26;3.30;;;2.90;;
48963;SDS011;34776;48.180;16.420;2023-06-26T11:38:52;3.45;;;2.72;;
48963;SDS011;34776;48.180;16.420;2023-06-26T11:41:23;3.30;;;3.00;;
48963;SDS011;34776;48.180;16.420;2023-06-26T11:43:53;5.68;;;4.32;;
48963;SDS011;34776;48.180;16.420;2023-06-26T11:46:20;4.25;;;3.70;;
48963;SDS011;34776;48.180;16.420;2023-06-26T11:48:46;6.68;;;3.30;;
48963;SDS011;34776;48.180;16.420;2023-06-26T11:51:15;3.60;;;3.10;;
48963;SDS011;34776;48.180;16.420;2023-06-26T11:53:41;4.80;;;2.88;;
48963;SDS011;34776;48.180;16.420;2023-06-26T11:56:11;5.53;;;3.00;;
48963;SDS011;34776;48.180;16.420;2023-06-26T12:01:26;3.20;;;2.90;;
48963;SDS011;34776;48.180;16.420;2023-06-26T12:03:58;3.95;;;3.15;;
48963;SDS011;34776;48.180;16.420;2023-06-26T12:06:28;5.03;;;3.28;;
48963;SDS011;34776;48.180;16.420;2023-06-26T12:08:55;5.38;;;3.10;;
48963;SDS011;34776;48.180;16.420;2023-06-26T12:11:23;3.40;;;3.10;;
48963;SDS011;34776;48.180;16.420;2023-06-26T12:13:49;3.35;;;3.00;;
48963;SDS011;34776;48.180;16.420;2023-06-26T12:16:15;6.03;;;3.58;;
48963;SDS011;34776;48.180;16.420;2023-06-26T12:18:41;4.03;;;3.63;;
48963;SDS011;34776;48.180;16.420;2023-06-26T12:21:06;3.38;;;2.75;;
48963;SDS011;34776;48.180;16.420;2023-06-26T12:23:32;2.88;;;2.65;;
48963;SDS011;34776;48.180;16.420;2023-06-26T12:26:15;3.15;;;2.85;;
48963;SDS011;34776;48.180;16.420;2023-06-26T12:28:41;11.43;;;3.15;;
48963;SDS011;34776;48.180;16.420;2023-06-26T12:31:13;3.58;;;3.28;;
48963;SDS011;34776;48.180;16.420;2023-06-26T12:33:39;7.65;;;3.75;;
48963;SDS011;34776;48.180;16.420;2023-06-26T12:36:04;4.65;;;3.65;;
48963;SDS011;34776;48.180;16.420;2023-06-26T12:38:33;8.38;;;3.55;;
48963;SDS011;34776;48.180;16.420;2023-06-26T12:40:58;4.15;;;2.85;;
48963;SDS011;34776;48.180;16.420;2023-06-26T12:43:25;4.25;;;3.50;;
48963;SDS011;34776;48.180;16.420;2023-06-26T12:45:54;4.30;;;3.47;;
48963;SDS011;34776;48.180;16.420;2023-06-26T12:48:21;6.35;;;3.33;;
48963;SDS011;34776;48.180;16.420;2023-06-26T12:50:47;4.28;;;2.90;;
48963;SDS011;34776;48.180;16.420;2023-06-26T12:53:13;4.78;;;3.30;;
48963;SDS011;34776;48.180;16.420;2023-06-26T12:55:38;3.75;;;2.90;;
48963;SDS011;34776;48.180;16.420;2023-06-26T12:58:04;4.72;;;3.10;;
48963;SDS011;34776;48.180;16.420;2023-06-26T13:00:29;2.70;;;2.45;;
48963;SDS011;34776;48.180;16.420;2023-06-26T13:02:57;5.90;;;2.90;;
48963;SDS011;34776;48.180;16.420;2023-06-26T13:05:23;5.45;;;3.20;;
48963;SDS011;34776;48.180;16.420;2023-06-26T13:07:48;6.30;;;3.30;;
48963;SDS011;34776;48.180;16.420;2023-06-26T13:10:14;6.10;;;3.05;;
48963;SDS011;34776;48.180;16.420;2023-06-26T13:12:39;5.78;;;3.53;;
48963;SDS011;34776;48.180;16.420;2023-06-26T13:15:05;5.20;;;4.50;;
48963;SDS011;34776;48.180;16.420;2023-06-26T13:17:30;3.35;;;3.05;;
48963;SDS011;34776;48.180;16.420;2023-06-26T13:19:56;4.83;;;3.27;;
48963;SDS011;34776;48.180;16.420;2023-06-26T13:22:21;4.40;;;3.25;;
48963;SDS011;34776;48.180;16.420;2023-06-26T13:24:47;3.70;;;3.30;;
48963;SDS011;34776;48.180;16.420;2023-06-26T13:27:12;3.25;;;2.95;;
48963;SDS011;34776;48.180;16.420;2023-06-26T13:29:38;3.38;;;3.08;;
48963;SDS011;34776;48.180;16.420;2023-06-26T13:32:03;5.13;;;3.35;;
48963;SDS011;34776;48.180;16.420;2023-06-26T13:34:29;4.70;;;3.30;;
48963;SDS011;34776;48.180;16.420;2023-06-26T13:36:55;4.30;;;3.63;;
48963;SDS011;34776;48.180;16.420;2023-06-26T13:39:21;5.50;;;3.13;;
48963;SDS011;34776;48.180;16.420;2023-06-26T13:41:46;3.37;;;3.07;;
48963;SDS011;34776;48.180;16.420;2023-06-26T13:44:12;5.25;;;3.30;;
48963;SDS011;34776;48.180;16.420;2023-06-26T13:46:37;4.25;;;3.30;;
48963;SDS011;34776;48.180;16.420;2023-06-26T13:49:02;5.82;;;3.50;;
48963;SDS011;34776;48.180;16.420;2023-06-26T13:51:28;4.60;;;3.17;;
48963;SDS011;34776;48.180;16.420;2023-06-26T13:53:53;3.40;;;3.10;;
48963;SDS011;34776;48.180;16.420;2023-06-26T13:56:20;4.10;;;3.47;;
48963;SDS011;34776;48.180;16.420;2023-06-26T13:58:47;5.35;;;3.17;;
48963;SDS011;34776;48.180;16.420;2023-06-26T14:01:13;4.03;;;3.00;;
48963;SDS011;34776;48.180;16.420;2023-06-26T14:03:38;6.90;;;4.72;;
48963;SDS011;34776;48.180;16.420;2023-06-26T14:06:04;3.60;;;3.17;;
48963;SDS011;34776;48.180;16.420;2023-06-26T14:08:29;5.38;;;3.63;;
48963;SDS011;34776;48.180;16.420;2023-06-26T14:10:54;3.70;;;3.30;;
48963;SDS011;34776;48.180;16.420;2023-06-26T14:13:20;4.13;;;3.40;;
48963;SDS011;34776;48.180;16.420;2023-06-26T14:15:45;10.00;;;3.63;;
48963;SDS011;34776;48.180;16.420;2023-06-26T14:18:10;5.23;;;3.30;;
48963;SDS011;34776;48.180;16.420;2023-06-26T14:20:36;4.10;;;3.45;;
48963;SDS011;34776;48.180;16.420;2023-06-26T14:23:01;5.55;;;3.50;;
48963;SDS011;34776;48.180;16.420;2023-06-26T14:25:27;4.65;;;3.75;;
48963;SDS011;34776;48.180;16.420;2023-06-26T14:27:53;8.32;;;3.65;;
48963;SDS011;34776;48.180;16.420;2023-06-26T14:30:19;6.25;;;3.60;;
48963;SDS011;34776;48.180;16.420;2023-06-26T14:32:44;4.10;;;3.72;;
48963;SDS011;34776;48.180;16.420;2023-06-26T14:35:10;6.83;;;3.27;;
48963;SDS011;34776;48.180;16.420;2023-06-26T14:37:35;5.80;;;3.40;;
48963;SDS011;34776;48.180;16.420;2023-06-26T14:40:04;4.40;;;3.15;;
48963;SDS011;34776;48.180;16.420;2023-06-26T14:42:31;5.28;;;3.90;;
48963;SDS011;34776;48.180;16.420;2023-06-26T14:44:56;5.20;;;4.10;;
48963;SDS011;34776;48.180;16.420;2023-06-26T14:47:21;5.43;;;4.30;;
48963;SDS011;34776;48.180;16.420;2023-06-26T14:49:46;5.32;;;4.85;;